Time;durP1;ratioP1;P1;durP2;ratioP2;P2;SDS_P1;SDS_P2;PMS_P1;PMS_P2;Temp;Humidity;BMP_temperature;BMP_pressure;BME280_temperature;BME280_humidity;BME280_pressure;Samples;Min_cycle;Max_cycle;Signal;HPM_P1;HPM_P2
2024/01/13 00:00:21;;;;;;;;;45.00;36.50;;;;;2.25;75.07;102404.34;5117234;27;45325;-79
2024/01/13 00:02:46;;;;;;;;;59.75;45.25;;;;;2.32;75.61;102414.00;5117466;27;45813;-77
2024/01/13 00:05:11;;;;;;;;;54.00;40.75;;;;;2.22;75.34;102402.56;5117326;27;45597;-77
2024/01/13 00:07:37;;;;;;;;;45.00;35.75;;;;;2.28;75.23;102415.72;5116921;27;46191;-76
2024/01/13 00:10:02;;;;;;;;;43.25;34.25;;;;;2.36;75.08;102416.69;5117035;27;45343;-79
2024/01/13 00:12:28;;;;;;;;;53.00;41.25;;;;;2.34;74.76;102405.28;5117126;27;45293;-77
2024/01/13 00:14:53;;;;;;;;;46.75;36.75;;;;;2.38;74.38;102400.94;5131982;27;45397;-78
2024/01/13 00:17:18;;;;;;;;;56.25;44.00;;;;;2.40;74.62;102409.69;5116702;27;46040;-76
2024/01/13 00:19:43;;;;;;;;;61.75;44.25;;;;;2.24;74.81;102392.97;5127108;27;57492;-75
2024/01/13 00:22:09;;;;;;;;;56.50;42.00;;;;;2.10;75.51;102378.88;5125703;27;45349;-77
2024/01/13 00:24:34;;;;;;;;;54.75;43.75;;;;;2.13;75.32;102384.13;5137110;27;54222;-77
2024/01/13 00:26:59;;;;;;;;;37.00;28.25;;;;;2.01;76.08;102391.91;5105527;27;48232;-76
2024/01/13 00:29:25;;;;;;;;;59.25;44.50;;;;;2.03;76.61;102377.91;5116225;27;54772;-77
2024/01/13 00:31:50;;;;;;;;;55.25;42.75;;;;;2.03;76.69;102377.03;5120425;27;47863;-75
2024/01/13 00:34:15;;;;;;;;;55.00;43.25;;;;;2.02;76.14;102385.78;5118933;27;45538;-77
2024/01/13 00:36:41;;;;;;;;;55.25;46.50;;;;;1.99;77.26;102377.91;5138038;27;45892;-77
2024/01/13 00:39:07;;;;;;;;;61.50;45.50;;;;;1.93;76.63;102359.47;5106069;27;45397;-76
2024/01/13 00:41:32;;;;;;;;;55.00;43.00;;;;;1.93;77.24;102372.59;5116992;27;45459;-78
2024/01/13 00:43:59;;;;;;;;;46.75;43.00;;;;;1.96;76.72;102372.63;5116973;27;45263;-78
2024/01/13 00:46:25;;;;;;;;;55.75;42.00;;;;;2.01;76.63;102384.03;5116796;27;45296;-79
2024/01/13 00:48:50;;;;;;;;;54.25;44.00;;;;;2.13;76.33;102378.88;5117306;27;45428;-80
2024/01/13 00:51:15;;;;;;;;;46.25;40.25;;;;;1.95;77.51;102373.47;5117054;27;45309;-81
2024/01/13 00:53:41;;;;;;;;;40.75;27.25;;;;;1.97;76.67;102372.66;5119165;27;45612;-78
2024/01/13 00:56:07;;;;;;;;;50.50;42.00;;;;;2.01;76.58;102363.03;5119923;27;45353;-76
2024/01/13 00:58:32;;;;;;;;;50.75;41.50;;;;;2.03;76.47;102358.69;5119859;27;45321;-77
2024/01/13 01:00:59;;;;;;;;;32.00;15.00;;;;;2.21;76.20;102369.28;5119508;27;46023;-77
2024/01/13 01:03:26;;;;;;;;;53.75;39.75;;;;;2.20;76.14;102367.53;5120035;27;45371;-76
2024/01/13 01:05:51;;;;;;;;;47.25;37.25;;;;;2.05;76.12;102359.56;5120043;27;45494;-75
2024/01/13 01:08:16;;;;;;;;;41.00;35.75;;;;;2.04;75.80;102368.31;5119653;27;45396;-77
2024/01/13 01:10:42;;;;;;;;;47.25;36.25;;;;;1.96;76.01;102373.50;5100896;27;60656;-76
2024/01/13 01:13:07;;;;;;;;;38.75;33.50;;;;;1.97;76.15;102377.00;5120365;27;45678;-77
2024/01/13 01:15:32;;;;;;;;;41.25;34.25;;;;;1.95;75.78;102368.22;5132299;27;47866;-76
2024/01/13 01:17:57;;;;;;;;;28.00;24.00;;;;;2.03;75.62;102369.16;5141066;27;45358;-78
2024/01/13 01:20:24;;;;;;;;;35.50;30.50;;;;;1.94;76.04;102372.59;5141170;27;45313;-77
2024/01/13 01:22:49;;;;;;;;;34.25;27.00;;;;;1.88;76.04;102371.69;5136423;27;45531;-78
2024/01/13 01:25:14;;;;;;;;;35.00;28.50;;;;;1.91;76.19;102367.31;5119804;27;46350;-78
2024/01/13 01:27:40;;;;;;;;;34.50;25.00;;;;;1.99;75.72;102372.66;5119365;27;45335;-76
2024/01/13 01:30:06;;;;;;;;;33.50;28.25;;;;;2.02;75.10;102360.41;5124405;27;45261;-80
2024/01/13 01:32:31;;;;;;;;;41.75;27.75;;;;;1.91;75.58;102369.94;5130346;27;45504;-80
2024/01/13 01:34:56;;;;;;;;;28.00;26.75;;;;;1.99;75.93;102367.41;5122308;27;55741;-76
2024/01/13 01:37:23;;;;;;;;;39.75;32.50;;;;;2.06;75.88;102377.94;5118378;27;45263;-79
2024/01/13 01:39:48;;;;;;;;;40.50;28.50;;;;;2.04;75.69;102358.69;5119999;27;45734;-76
2024/01/13 01:42:13;;;;;;;;;43.00;33.50;;;;;2.15;74.53;102371.88;5137116;27;45665;-80
2024/01/13 01:44:39;;;;;;;;;36.50;26.50;;;;;2.16;74.85;102368.38;5134130;27;45316;-76
2024/01/13 01:47:07;;;;;;;;;52.00;28.75;;;;;2.15;74.67;102374.50;5129357;27;59991;-76
2024/01/13 01:49:32;;;;;;;;;37.50;24.25;;;;;2.03;75.50;102377.91;5118737;27;45803;-76
2024/01/13 01:51:58;;;;;;;;;36.50;25.25;;;;;1.97;75.61;102363.88;5135679;27;45516;-79
2024/01/13 01:54:23;;;;;;;;;37.50;31.50;;;;;2.00;75.38;102369.16;5139534;27;46082;-85
2024/01/13 01:56:49;;;;;;;;;37.50;30.75;;;;;1.95;75.58;102365.59;5135596;27;45402;-77
2024/01/13 01:59:14;;;;;;;;;27.75;27.75;;;;;1.88;75.95;102369.06;5100477;27;45382;-77
2024/01/13 02:01:40;;;;;;;;;46.50;33.00;;;;;1.82;76.43;102353.25;5118977;27;45279;-76
2024/01/13 02:04:05;;;;;;;;;38.75;29.25;;;;;1.83;76.92;102362.91;5134465;27;45357;-81
2024/01/13 02:06:31;;;;;;;;;30.50;22.00;;;;;1.76;76.40;102356.72;5139644;27;45420;-75
2024/01/13 02:08:57;;;;;;;;;35.25;28.25;;;;;1.80;76.89;102362.84;5139599;27;45393;-77
2024/01/13 02:11:22;;;;;;;;;39.25;31.00;;;;;1.81;77.21;102359.38;5139696;27;45561;-77
2024/01/13 02:13:48;;;;;;;;;51.75;34.25;;;;;1.70;77.52;102357.56;5135779;27;45293;-76
2024/01/13 02:16:15;;;;;;;;;42.50;30.50;;;;;1.63;77.51;102358.34;5119000;27;45479;-79
2024/01/13 02:18:41;;;;;;;;;37.50;32.00;;;;;1.62;77.64;102358.34;5118374;27;45296;-78
2024/01/13 02:21:06;;;;;;;;;49.75;34.50;;;;;1.44;77.33;102327.59;5118689;27;45564;-79
2024/01/13 02:23:32;;;;;;;;;39.25;29.00;;;;;1.62;77.85;102353.97;5118576;27;45428;-75
2024/01/13 02:25:58;;;;;;;;;42.00;35.50;;;;;1.56;77.99;102330.31;5118388;27;45295;-77
2024/01/13 02:28:23;;;;;;;;;39.50;28.25;;;;;1.70;77.26;102344.44;5118381;27;45382;-80
2024/01/13 02:30:48;;;;;;;;;43.50;30.75;;;;;1.75;77.16;102341.84;5119060;27;45366;-80
2024/01/13 02:33:14;;;;;;;;;34.50;27.25;;;;;1.73;77.45;102339.22;5117845;27;54204;-80
2024/01/13 02:35:39;;;;;;;;;39.00;30.00;;;;;1.78;77.33;102340.13;5118343;27;45245;-77
2024/01/13 02:38:04;;;;;;;;;44.50;36.25;;;;;1.83;77.24;102341.91;5118395;27;45413;-79
2024/01/13 02:40:30;;;;;;;;;30.00;27.00;;;;;1.81;76.87;102338.38;5133580;27;45181;-78
2024/01/13 02:42:55;;;;;;;;;50.75;31.75;;;;;1.81;76.66;102333.13;5138528;27;56750;-79
2024/01/13 02:45:20;;;;;;;;;33.00;27.50;;;;;1.74;76.74;102333.09;5139188;27;45874;-76
2024/01/13 02:47:55;;;;;;;;;29.75;25.50;;;;;1.58;77.33;102325.09;5135590;27;45260;-76
2024/01/13 02:50:20;;;;;;;;;26.00;22.50;;;;;1.56;77.91;102327.69;5118931;27;45480;-78
2024/01/13 02:52:47;;;;;;;;;31.25;24.50;;;;;1.60;77.64;102326.88;5118243;27;46023;-76
2024/01/13 02:55:12;;;;;;;;;26.50;24.50;;;;;1.70;77.67;102328.72;5117938;27;45309;-77
2024/01/13 02:57:38;;;;;;;;;37.50;29.50;;;;;1.73;77.59;102326.09;5117922;27;45367;-77
2024/01/13 03:00:04;;;;;;;;;36.25;28.75;;;;;1.76;77.28;102317.38;5099423;27;45509;-76
2024/01/13 03:02:30;;;;;;;;;33.75;24.25;;;;;1.67;77.56;102320.78;5117431;27;45405;-75
2024/01/13 03:04:55;;;;;;;;;29.50;24.25;;;;;1.64;77.78;102319.88;5118469;27;45398;-76
2024/01/13 03:07:20;;;;;;;;;32.25;27.00;;;;;1.61;77.75;102310.25;5118138;27;45322;-77
2024/01/13 03:09:46;;;;;;;;;34.50;26.25;;;;;1.68;78.39;102301.56;5118125;27;45495;-76
2024/01/13 03:12:11;;;;;;;;;29.00;22.75;;;;;1.75;77.50;102300.75;5117763;27;46289;-77
2024/01/13 03:14:36;;;;;;;;;42.00;28.00;;;;;1.76;77.43;102305.13;5117781;27;45284;-78
2024/01/13 03:17:02;;;;;;;;;36.50;25.00;;;;;1.80;77.76;102297.28;5116640;27;45331;-76
2024/01/13 03:19:28;;;;;;;;;31.00;19.50;;;;;1.74;77.21;102299.00;5099100;27;45692;-76
2024/01/13 03:21:53;;;;;;;;;44.00;31.00;;;;;1.71;76.92;102292.88;5118179;27;45421;-76
2024/01/13 03:24:19;;;;;;;;;33.00;31.75;;;;;1.73;77.77;102294.63;5117882;27;47306;-76
2024/01/13 03:26:44;;;;;;;;;26.00;24.50;;;;;1.81;76.92;102291.16;5117142;27;56506;-79
2024/01/13 03:29:09;;;;;;;;;25.50;17.00;;;;;1.89;76.58;102290.34;5117715;27;49962;-80
2024/01/13 03:31:35;;;;;;;;;35.00;27.75;;;;;1.86;76.27;102285.09;5117382;27;45236;-78
2024/01/13 03:34:00;;;;;;;;;34.00;23.00;;;;;1.85;76.40;102279.84;5116991;27;52585;-77
2024/01/13 03:36:25;;;;;;;;;29.00;23.25;;;;;1.85;76.95;102271.97;5117094;27;54604;-77
2024/01/13 03:38:50;;;;;;;;;28.50;18.50;;;;;1.93;76.40;102262.38;5120454;27;45237;-79
2024/01/13 03:41:19;;;;;;;;;32.50;24.00;;;;;1.92;76.14;102242.28;5117208;27;45216;-77
2024/01/13 03:43:45;;;;;;;;;29.75;25.75;;;;;2.01;75.97;102256.31;5098777;27;45939;-78
2024/01/13 03:46:10;;;;;;;;;27.75;23.25;;;;;2.01;76.06;102260.69;5117511;27;45542;-79
2024/01/13 03:48:35;;;;;;;;;32.00;24.75;;;;;2.04;76.00;102248.47;5125903;27;45322;-77
2024/01/13 03:51:01;;;;;;;;;35.25;27.75;;;;;2.10;75.87;102242.38;5119215;27;45410;-79
2024/01/13 03:53:28;;;;;;;;;23.75;17.00;;;;;2.03;76.17;102235.34;5136010;27;45451;-77
2024/01/13 03:55:53;;;;;;;;;41.50;26.75;;;;;1.85;76.13;102224.75;5117467;27;45482;-84
2024/01/13 03:58:18;;;;;;;;;31.75;26.25;;;;;1.95;75.87;102237.03;5098573;27;45574;-79
2024/01/13 04:00:44;;;;;;;;;28.25;22.75;;;;;1.94;75.44;102230.03;5121275;27;46037;-80
2024/01/13 04:03:09;;;;;;;;;22.75;16.50;;;;;1.97;75.86;102233.56;5125422;27;53541;-78
2024/01/13 04:05:34;;;;;;;;;39.25;23.25;;;;;2.05;74.77;102236.22;5117403;27;45216;-82
2024/01/13 04:08:00;;;;;;;;;35.50;22.00;;;;;2.07;74.79;102231.84;5135238;27;54304;-80
2024/01/13 04:10:25;;;;;;;;;18.50;14.25;;;;;1.96;74.48;102230.94;5137684;27;45272;-75
2024/01/13 04:12:51;;;;;;;;;25.50;21.75;;;;;1.89;75.04;102237.00;5133633;27;45444;-76
2024/01/13 04:15:16;;;;;;;;;27.25;20.00;;;;;1.85;74.59;102232.63;5117130;27;45304;-77
2024/01/13 04:17:42;;;;;;;;;33.00;23.75;;;;;1.84;74.54;102225.63;5123889;27;45584;-77
2024/01/13 04:20:08;;;;;;;;;22.75;16.50;;;;;1.74;74.79;102217.69;5118051;27;57642;-77
2024/01/13 04:22:33;;;;;;;;;20.50;17.75;;;;;1.75;75.07;102218.56;5116766;27;45331;-79
2024/01/13 04:24:58;;;;;;;;;29.75;23.75;;;;;1.64;75.09;102208.00;5116340;27;45213;-78
2024/01/13 04:27:23;;;;;;;;;32.00;22.00;;;;;1.68;75.21;102222.88;5117790;27;52982;-77
2024/01/13 04:29:49;;;;;;;;;24.25;18.00;;;;;1.50;75.53;102201.78;5119543;27;46460;-78
2024/01/13 04:32:14;;;;;;;;;32.75;21.00;;;;;1.58;75.82;102231.56;5118505;27;45376;-78
2024/01/13 04:34:39;;;;;;;;;16.00;12.25;;;;;1.44;76.19;102213.13;5120810;27;45379;-77
2024/01/13 04:37:05;;;;;;;;;32.50;22.25;;;;;1.44;76.76;102228.84;5124667;27;54765;-79
2024/01/13 04:39:30;;;;;;;;;30.00;22.75;;;;;1.46;76.88;102227.13;5126088;27;46094;-77
2024/01/13 04:41:56;;;;;;;;;27.25;20.50;;;;;1.62;76.20;102230.72;5121831;27;45412;-79
2024/01/13 04:44:21;;;;;;;;;31.50;22.50;;;;;1.71;75.38;102233.41;5121000;27;45545;-81
2024/01/13 04:46:46;;;;;;;;;29.25;20.50;;;;;1.69;75.00;102224.66;5119498;27;45544;-77
2024/01/13 04:49:12;;;;;;;;;20.75;19.50;;;;;1.67;75.09;102223.75;5123804;27;45363;-79
2024/01/13 04:51:37;;;;;;;;;36.00;27.00;;;;;1.66;75.42;102205.38;5140975;27;45867;-77
2024/01/13 04:54:03;;;;;;;;;19.00;17.25;;;;;1.84;75.43;102213.38;5131552;27;45522;-78
2024/01/13 04:56:28;;;;;;;;;26.50;23.75;;;;;1.81;75.08;102207.22;5119485;27;45519;-76
2024/01/13 04:58:54;;;;;;;;;28.00;22.25;;;;;1.77;75.27;102207.22;5119835;27;45333;-79
2024/01/13 05:01:19;;;;;;;;;27.00;24.75;;;;;1.76;75.99;102208.09;5118731;27;54458;-80
2024/01/13 05:03:44;;;;;;;;;27.00;21.75;;;;;1.67;75.83;102201.91;5119387;27;45429;-79
2024/01/13 05:06:10;;;;;;;;;31.25;26.25;;;;;1.74;76.16;102196.72;5119968;27;46319;-78
2024/01/13 05:08:35;;;;;;;;;34.25;27.75;;;;;1.83;76.21;102200.25;5119300;27;46138;-79
2024/01/13 05:11:00;;;;;;;;;32.75;23.75;;;;;1.75;76.26;102197.59;5119842;27;51705;-77
2024/01/13 05:13:26;;;;;;;;;35.75;26.00;;;;;1.64;76.46;102189.66;5131513;27;45343;-77
2024/01/13 05:15:51;;;;;;;;;27.25;22.25;;;;;1.65;76.51;102188.78;5120428;27;45622;-76
2024/01/13 05:18:16;;;;;;;;;26.50;20.25;;;;;1.74;76.19;102195.84;5127500;27;68522;-76
2024/01/13 05:20:41;;;;;;;;;24.75;22.00;;;;;1.76;75.83;102191.47;5137367;27;45230;-76
2024/01/13 05:23:07;;;;;;;;;25.50;20.50;;;;;1.73;75.85;102173.97;5119635;27;47988;-78
2024/01/13 05:25:33;;;;;;;;;33.25;24.25;;;;;1.65;76.24;102180.03;5119746;27;45612;-76
2024/01/13 05:27:58;;;;;;;;;30.50;22.75;;;;;1.60;77.07;102176.50;5119606;27;46640;-80
2024/01/13 05:30:26;;;;;;;;;29.50;23.75;;;;;1.46;76.65;102158.94;5127169;27;45370;-78
2024/01/13 05:32:51;;;;;;;;;24.50;19.25;;;;;1.49;76.30;102163.34;5140604;27;45459;-81
2024/01/13 05:35:16;;;;;;;;;33.25;23.50;;;;;1.67;76.75;102162.56;5140393;27;45551;-75
2024/01/13 05:37:42;;;;;;;;;26.00;24.00;;;;;1.67;76.03;102163.44;5136457;27;53103;-76
2024/01/13 05:40:08;;;;;;;;;21.00;16.50;;;;;1.61;76.43;102159.91;5117703;27;56752;-78
2024/01/13 05:42:33;;;;;;;;;19.00;14.00;;;;;1.55;76.53;102158.13;5119506;27;45271;-79
2024/01/13 05:44:59;;;;;;;;;29.75;23.75;;;;;1.45;76.44;102161.56;5119340;27;45264;-79
2024/01/13 05:47:24;;;;;;;;;19.50;17.50;;;;;1.38;76.88;102157.13;5119192;27;45290;-76
2024/01/13 05:49:49;;;;;;;;;21.50;16.50;;;;;1.52;76.30;102168.59;5118494;27;61072;-80
2024/01/13 05:52:14;;;;;;;;;31.25;23.00;;;;;1.45;76.65;102156.31;5119233;27;45300;-76
2024/01/13 05:54:40;;;;;;;;;26.25;16.75;;;;;1.42;76.43;102145.78;5101085;27;45689;-78
2024/01/13 05:57:05;;;;;;;;;25.50;22.25;;;;;1.41;76.29;102154.53;5100360;27;47136;-79
2024/01/13 05:59:31;;;;;;;;;27.75;20.00;;;;;1.36;76.92;102151.00;5119036;27;45642;-76
2024/01/13 06:01:56;;;;;;;;;29.50;20.50;;;;;1.34;76.68;102134.41;5118518;27;61560;-76
2024/01/13 06:04:21;;;;;;;;;33.00;22.75;;;;;1.51;75.54;102143.25;5100726;27;46206;-78
2024/01/13 06:06:47;;;;;;;;;20.25;18.00;;;;;1.65;75.78;102151.19;5125494;27;46335;-77
2024/01/13 06:09:13;;;;;;;;;29.25;17.25;;;;;1.59;75.39;102127.56;5139605;27;45449;-76
2024/01/13 06:11:41;;;;;;;;;26.25;22.00;;;;;1.51;75.77;102130.13;5119720;27;45373;-77
2024/01/13 06:14:07;;;;;;;;;31.50;23.50;;;;;1.49;75.53;102121.38;5119415;27;45443;-81
2024/01/13 06:16:32;;;;;;;;;34.75;24.50;;;;;1.55;75.05;102124.03;5117172;27;45490;-78
2024/01/13 06:18:58;;;;;;;;;32.75;23.00;;;;;1.47;75.86;102133.63;5118539;27;65017;-78
2024/01/13 06:21:23;;;;;;;;;23.25;23.00;;;;;1.38;75.94;102136.16;5130274;27;45366;-78
2024/01/13 06:23:48;;;;;;;;;30.50;20.00;;;;;1.24;76.50;102124.72;5119089;27;45442;-77
2024/01/13 06:26:13;;;;;;;;;25.00;21.50;;;;;1.24;76.94;102135.19;5134475;27;46122;-78
2024/01/13 06:28:39;;;;;;;;;26.00;19.25;;;;;1.00;76.74;102084.38;5136137;27;56933;-77
2024/01/13 06:31:04;;;;;;;;;26.25;24.50;;;;;1.20;76.57;102122.97;5118737;27;45449;-75
2024/01/13 06:33:29;;;;;;;;;28.00;24.00;;;;;1.15;77.08;102110.69;5118706;27;55310;-79
2024/01/13 06:35:55;;;;;;;;;32.25;20.75;;;;;1.18;76.75;102113.34;5118565;27;46127;-76
2024/01/13 06:38:21;;;;;;;;;29.75;22.00;;;;;1.14;77.06;102110.66;5133828;27;45252;-77
2024/01/13 06:40:47;;;;;;;;;26.00;24.25;;;;;1.17;76.82;102114.22;5139247;27;45371;-76
2024/01/13 06:43:13;;;;;;;;;33.25;23.00;;;;;1.21;76.71;102119.47;5139405;27;45412;-76
2024/01/13 06:45:38;;;;;;;;;28.25;19.00;;;;;1.31;76.42;102131.78;5136223;27;46342;-77
2024/01/13 06:48:04;;;;;;;;;29.25;21.25;;;;;1.22;76.79;102126.47;5118635;27;45306;-77
2024/01/13 06:50:29;;;;;;;;;33.25;24.25;;;;;1.22;76.80;102131.69;5118676;27;45399;-75
2024/01/13 06:52:55;;;;;;;;;26.50;21.50;;;;;1.22;77.28;102129.06;5119114;27;45410;-75
2024/01/13 06:55:23;;;;;;;;;38.25;27.50;;;;;1.22;77.41;102129.06;5117983;27;55443;-79
2024/01/13 06:57:51;;;;;;;;;34.00;25.00;;;;;1.21;76.73;102127.31;5132788;27;45348;-76
2024/01/13 07:00:17;;;;;;;;;25.75;23.75;;;;;1.20;77.50;102122.97;5138731;27;45234;-76
2024/01/13 07:02:44;;;;;;;;;25.75;25.75;;;;;1.11;76.89;102098.44;5135701;27;45612;-78
2024/01/13 07:05:10;;;;;;;;;17.00;16.75;;;;;1.28;76.34;102105.50;5118142;27;45345;-77
2024/01/13 07:07:35;;;;;;;;;26.75;25.00;;;;;1.33;76.42;102112.56;5099881;27;45769;-76
2024/01/13 07:10:01;;;;;;;;;24.25;20.25;;;;;1.34;77.42;102105.56;5120277;27;46066;-79
2024/01/13 07:12:26;;;;;;;;;26.75;18.25;;;;;1.41;76.76;102109.97;5117269;27;45401;-78
2024/01/13 07:14:51;;;;;;;;;17.50;16.00;;;;;1.46;76.95;102114.38;5117709;27;46138;-81
2024/01/13 07:17:17;;;;;;;;;21.50;16.75;;;;;1.50;75.74;102117.03;5117576;27;50802;-78
2024/01/13 07:19:42;;;;;;;;;18.75;18.75;;;;;1.58;75.91;102105.72;5117960;27;45524;-81
2024/01/13 07:22:09;;;;;;;;;28.00;21.25;;;;;1.55;75.22;102089.06;5099767;27;45372;-80
2024/01/13 07:24:34;;;;;;;;;26.25;20.50;;;;;1.61;75.18;102099.59;5115888;27;47447;-80
2024/01/13 07:26:59;;;;;;;;;32.25;17.50;;;;;1.63;75.04;102109.22;5117220;27;57468;-80
2024/01/13 07:29:25;;;;;;;;;31.50;25.25;;;;;1.64;75.35;102110.97;5117796;27;45477;-80
2024/01/13 07:31:50;;;;;;;;;26.25;23.00;;;;;1.57;75.15;102101.34;5117243;27;46034;-82
2024/01/13 07:34:15;;;;;;;;;36.25;26.50;;;;;1.58;75.44;102110.09;5122718;27;46215;-82
2024/01/13 07:36:40;;;;;;;;;29.00;24.00;;;;;1.45;75.40;102104.78;5124217;27;59272;-81
2024/01/13 07:39:09;;;;;;;;;30.50;20.25;;;;;1.35;75.96;102097.72;5116800;27;55547;-80
2024/01/13 07:41:35;;;;;;;;;20.50;17.00;;;;;1.39;75.65;102109.09;5118408;27;45571;-79
2024/01/13 07:44:01;;;;;;;;;29.00;19.75;;;;;1.41;75.42;102096.84;5117424;27;46257;-76
2024/01/13 07:46:26;;;;;;;;;26.25;21.00;;;;;1.46;75.22;102092.53;5121172;27;45346;-80
2024/01/13 07:48:52;;;;;;;;;25.50;20.25;;;;;1.59;75.24;102099.59;5133142;27;45439;-82
2024/01/13 07:51:18;;;;;;;;;29.75;22.75;;;;;1.66;74.94;102096.13;5120045;27;45475;-76
2024/01/13 07:53:44;;;;;;;;;27.50;23.75;;;;;1.73;75.02;102089.16;5138167;27;46124;-79
2024/01/13 07:56:10;;;;;;;;;27.25;20.50;;;;;1.75;74.22;102088.28;5119059;27;45511;-79
2024/01/13 07:58:35;;;;;;;;;25.00;22.50;;;;;1.71;74.82;102086.53;5117160;27;45353;-78
2024/01/13 08:01:02;;;;;;;;;20.00;20.00;;;;;1.78;74.12;102090.94;5100175;27;45614;-79
2024/01/13 08:03:28;;;;;;;;;23.75;17.25;;;;;1.81;74.23;102083.94;5120037;27;45338;-77
2024/01/13 08:05:53;;;;;;;;;31.75;24.50;;;;;1.77;74.56;102091.78;5120871;27;45435;-79
2024/01/13 08:08:24;;;;;;;;;22.75;20.50;;;;;1.71;74.69;102070.81;5120913;27;45278;-76
2024/01/13 08:10:49;;;;;;;;;22.25;17.50;;;;;1.66;74.56;102072.50;5124755;27;45528;-78
2024/01/13 08:13:15;;;;;;;;;27.00;20.00;;;;;1.76;75.01;102073.44;5134571;27;46040;-80
2024/01/13 08:15:40;;;;;;;;;26.25;20.75;;;;;1.82;74.51;102073.44;5101579;27;45548;-77
2024/01/13 08:18:05;;;;;;;;;27.75;19.00;;;;;1.87;74.28;102078.72;5119703;27;45472;-80
2024/01/13 08:20:31;;;;;;;;;23.50;20.50;;;;;1.89;74.18;102069.97;5120720;27;45162;-81
2024/01/13 08:22:57;;;;;;;;;26.50;24.00;;;;;1.84;73.69;102055.13;5120479;27;45379;-79
2024/01/13 08:25:22;;;;;;;;;26.50;22.00;;;;;1.83;74.10;102059.47;5120355;27;45350;-78
2024/01/13 08:27:47;;;;;;;;;38.50;28.00;;;;;1.90;74.44;102060.38;5120552;27;45422;-78
2024/01/13 08:30:13;;;;;;;;;27.75;24.50;;;;;1.90;74.54;102070.84;5120378;27;46074;-79
2024/01/13 08:32:38;;;;;;;;;29.25;20.75;;;;;1.86;74.56;102069.09;5120768;27;46376;-79
2024/01/13 08:35:07;;;;;;;;;31.00;21.50;;;;;1.84;75.21;102061.22;5121838;27;45328;-79
2024/01/13 08:37:32;;;;;;;;;28.25;18.75;;;;;1.83;74.70;102050.75;5120602;27;45420;-79
2024/01/13 08:39:57;;;;;;;;;29.75;25.50;;;;;1.76;75.33;102069.06;5120467;27;45489;-78
2024/01/13 08:42:23;;;;;;;;;33.50;26.75;;;;;1.65;75.11;102062.91;5120165;27;45309;-80
2024/01/13 08:44:48;;;;;;;;;26.00;22.50;;;;;1.66;75.28;102064.66;5120182;27;45436;-81
2024/01/13 08:47:13;;;;;;;;;18.50;11.25;;;;;1.65;74.49;102072.50;5120416;27;45302;-80
2024/01/13 08:49:39;;;;;;;;;29.25;20.75;;;;;1.62;75.18;102076.00;5120005;27;53371;-79
2024/01/13 08:52:05;;;;;;;;;23.25;23.25;;;;;1.58;74.85;102068.13;5101513;27;47121;-78
2024/01/13 08:54:30;;;;;;;;;33.25;27.00;;;;;1.63;74.61;102083.00;5102162;27;45909;-79
2024/01/13 08:56:56;;;;;;;;;29.00;19.25;;;;;1.53;74.27;102065.47;5119840;27;60331;-78
2024/01/13 08:59:21;;;;;;;;;35.50;27.50;;;;;1.67;74.36;102090.00;5120487;27;62156;-81
2024/01/13 09:01:46;;;;;;;;;35.25;23.50;;;;;1.65;74.40;102091.75;5121512;27;46350;-78
2024/01/13 09:04:12;;;;;;;;;25.25;20.50;;;;;1.78;73.87;102106.66;5120834;27;51191;-83
2024/01/13 09:06:37;;;;;;;;;30.50;23.50;;;;;1.88;74.16;102104.97;5119722;27;45365;-79
2024/01/13 09:09:04;;;;;;;;;23.75;20.25;;;;;1.92;73.96;102100.59;5120226;27;45448;-82
2024/01/13 09:11:29;;;;;;;;;35.50;24.25;;;;;2.07;73.07;102116.38;5115135;27;47155;-79
2024/01/13 09:13:55;;;;;;;;;32.00;25.75;;;;;1.92;73.45;102083.09;5139268;27;45483;-76
2024/01/13 09:16:20;;;;;;;;;31.00;25.25;;;;;2.11;73.15;102115.53;5121437;27;45577;-80
2024/01/13 09:18:45;;;;;;;;;28.50;22.50;;;;;2.01;73.69;102095.38;5129429;27;45238;-79
2024/01/13 09:21:12;;;;;;;;;26.50;23.75;;;;;1.91;73.66;102089.22;5145321;27;57556;-83
2024/01/13 09:23:40;;;;;;;;;30.00;23.25;;;;;1.91;73.99;102093.59;5140759;27;45447;-79
2024/01/13 09:26:05;;;;;;;;;27.50;23.50;;;;;1.86;74.27;102090.97;5141094;27;45279;-83
2024/01/13 09:28:32;;;;;;;;;27.00;22.00;;;;;1.99;73.43;102099.75;5140465;27;45577;-81
2024/01/13 09:30:58;;;;;;;;;37.00;24.25;;;;;1.96;73.28;102086.63;5140003;27;45241;-79
2024/01/13 09:33:24;;;;;;;;;35.75;28.50;;;;;1.82;73.74;102077.81;5139984;27;45296;-81
2024/01/13 09:35:49;;;;;;;;;22.75;20.50;;;;;1.93;73.30;102087.47;5140144;27;45257;-80
2024/01/13 09:38:15;;;;;;;;;20.50;18.00;;;;;1.93;73.20;102076.97;5140568;27;45545;-79
2024/01/13 09:40:41;;;;;;;;;35.50;26.75;;;;;2.05;73.51;102097.13;5121356;27;47793;-82
2024/01/13 09:43:21;;;;;;;;;32.00;24.00;;;;;2.07;72.69;102098.00;5139897;27;45440;-81
2024/01/13 09:45:48;;;;;;;;;32.75;25.25;;;;;1.93;73.38;102104.97;5140095;27;45241;-80
2024/01/13 09:48:17;;;;;;;;;27.75;20.25;;;;;1.92;73.56;102111.09;5140500;27;45568;-79
2024/01/13 09:50:45;;;;;;;;;33.00;21.75;;;;;1.88;73.51;102098.84;5140232;27;46155;-81
2024/01/13 09:53:22;;;;;;;;;32.25;25.00;;;;;1.96;73.67;102131.25;5140132;27;45201;-83
2024/01/13 09:55:51;;;;;;;;;28.50;24.75;;;;;1.91;73.00;102140.81;5139919;27;45272;-81
2024/01/13 09:58:17;;;;;;;;;34.50;24.75;;;;;1.55;73.90;102083.81;5140493;27;45432;-81
2024/01/13 10:00:44;;;;;;;;;34.00;24.00;;;;;1.77;73.57;102107.53;5140108;27;45430;-82
2024/01/13 10:03:09;;;;;;;;;28.50;25.00;;;;;1.75;73.89;102116.28;5139748;27;45447;-86
2024/01/13 10:05:35;;;;;;;;;27.25;26.75;;;;;1.77;73.85;102107.53;5139829;27;45332;-83
2024/01/13 10:08:00;;;;;;;;;32.50;24.25;;;;;1.72;73.83;102096.16;5139446;27;54714;-85
2024/01/13 10:10:26;;;;;;;;;30.00;25.75;;;;;1.88;73.35;102115.44;5139575;27;45305;-82
2024/01/13 10:12:52;;;;;;;;;30.75;24.25;;;;;2.03;72.64;102130.38;5132928;27;45280;-85
2024/01/13 10:15:18;;;;;;;;;26.00;22.75;;;;;2.00;72.79;102123.38;5133597;27;45330;-82
2024/01/13 10:17:43;;;;;;;;;30.75;23.50;;;;;1.99;72.74;102100.63;5141109;27;45529;-83
2024/01/13 10:20:13;;;;;;;;;33.50;24.00;;;;;2.11;73.02;102112.03;5118627;27;45318;-83
2024/01/13 10:22:39;;;;;;;;;39.75;27.25;;;;;2.10;72.25;102090.19;5119404;27;45567;-80
2024/01/13 10:25:07;;;;;;;;;35.75;26.00;;;;;2.14;72.28;102088.44;5118458;27;45487;-82
2024/01/13 10:27:32;;;;;;;;;27.50;24.25;;;;;2.15;72.29;102098.94;5128999;27;45271;-83
2024/01/13 10:29:58;;;;;;;;;22.75;17.75;;;;;2.02;72.42;102102.38;5120703;27;46758;-83
2024/01/13 10:32:25;;;;;;;;;40.25;31.75;;;;;2.05;72.41;102081.38;5139144;27;45226;-83
2024/01/13 10:34:53;;;;;;;;;32.50;23.75;;;;;2.09;71.81;102092.78;5139391;27;45303;-82
2024/01/13 10:37:18;;;;;;;;;27.50;20.50;;;;;2.00;71.48;102073.53;5139584;27;45396;-79
2024/01/13 10:39:44;;;;;;;;;31.25;21.00;;;;;1.90;71.64;102070.84;5139240;27;46259;-81
2024/01/13 10:42:10;;;;;;;;;28.25;28.25;;;;;1.92;72.46;102082.22;5139001;27;45392;-79
2024/01/13 10:44:43;;;;;;;;;24.00;17.75;;;;;1.97;72.04;102072.66;5138055;27;45362;-80
2024/01/13 10:47:14;;;;;;;;;27.25;21.50;;;;;2.13;71.82;102074.44;5139376;27;45664;-79
2024/01/13 10:49:41;;;;;;;;;33.75;23.00;;;;;2.18;71.26;102067.44;5130074;27;45246;-80
2024/01/13 10:52:06;;;;;;;;;24.75;24.75;;;;;2.19;70.96;102063.94;5118079;27;45364;-80
2024/01/13 10:54:33;;;;;;;;;27.75;21.25;;;;;2.13;71.29;102040.31;5118401;27;45415;-79
2024/01/13 10:56:59;;;;;;;;;33.00;28.75;;;;;2.23;70.96;102034.22;5118315;27;45918;-76
2024/01/13 10:59:30;;;;;;;;;30.25;20.00;;;;;2.27;70.63;102025.44;5117710;27;46130;-78
2024/01/13 11:01:59;;;;;;;;;26.25;24.25;;;;;2.22;70.25;101995.72;5125682;27;45698;-78
2024/01/13 11:04:24;;;;;;;;;34.25;27.75;;;;;2.38;69.58;102016.72;5101474;27;46041;-79
2024/01/13 11:06:50;;;;;;;;;26.50;24.75;;;;;2.44;70.12;102021.97;5119780;27;45927;-78
2024/01/13 11:09:18;;;;;;;;;30.25;22.75;;;;;2.45;69.64;102000.06;5114542;27;45377;-78